sensor_id;sensor_type;location;lat;lon;timestamp;pressure;altitude;pressure_sealevel;temperature;humidity
17593;BME280;8915;51.760;14.300;2023-08-06T00:01:49;100239.84;;;16.56;80.74
17593;BME280;8915;51.760;14.300;2023-08-06T00:04:16;100240.97;;;16.55;81.24
17593;BME280;8915;51.760;14.300;2023-08-06T00:06:42;100226.88;;;16.54;80.83
17593;BME280;8915;51.760;14.300;2023-08-06T00:09:08;100228.78;;;16.54;81.27
17593;BME280;8915;51.760;14.300;2023-08-06T00:11:36;100237.91;;;16.53;81.15
17593;BME280;8915;51.760;14.300;2023-08-06T00:14:02;100248.97;;;16.55;81.52
17593;BME280;8915;51.760;14.300;2023-08-06T00:16:29;100234.88;;;16.54;81.44
17593;BME280;8915;51.760;14.300;2023-08-06T00:18:55;100231.44;;;16.54;81.31
17593;BME280;8915;51.760;14.300;2023-08-06T00:21:21;100239.81;;;16.52;81.22
17593;BME280;8915;51.760;14.300;2023-08-06T00:23:48;100240.56;;;16.53;81.33
17593;BME280;8915;51.760;14.300;2023-08-06T00:26:14;100244.38;;;16.52;81.44
17593;BME280;8915;51.760;14.300;2023-08-06T00:28:42;100238.28;;;16.51;81.27
17593;BME280;8915;51.760;14.300;2023-08-06T00:31:08;100233.72;;;16.52;81.49
17593;BME280;8915;51.760;14.300;2023-08-06T00:33:34;100224.19;;;16.51;81.37
17593;BME280;8915;51.760;14.300;2023-08-06T00:36:01;100218.88;;;16.51;81.20
17593;BME280;8915;51.760;14.300;2023-08-06T00:38:28;100225.34;;;16.50;81.26
17593;BME280;8915;51.760;14.300;2023-08-06T00:40:55;100225.72;;;16.48;81.58
17593;BME280;8915;51.760;14.300;2023-08-06T00:43:21;100222.25;;;16.48;81.24
17593;BME280;8915;51.760;14.300;2023-08-06T00:45:49;100223.03;;;16.48;81.26
17593;BME280;8915;51.760;14.300;2023-08-06T00:48:16;100224.19;;;16.47;81.44
17593;BME280;8915;51.760;14.300;2023-08-06T00:50:42;100221.09;;;16.45;81.30
17593;BME280;8915;51.760;14.300;2023-08-06T00:53:09;100216.91;;;16.44;81.35
17593;BME280;8915;51.760;14.300;2023-08-06T00:55:35;100207.41;;;16.43;81.22
17593;BME280;8915;51.760;14.300;2023-08-06T00:58:02;100205.88;;;16.42;80.91
17593;BME280;8915;51.760;14.300;2023-08-06T01:00:29;100193.66;;;16.41;81.13
17593;BME280;8915;51.760;14.300;2023-08-06T01:02:57;100196.34;;;16.41;81.29
17593;BME280;8915;51.760;14.300;2023-08-06T01:05:23;100192.16;;;16.40;81.64
17593;BME280;8915;51.760;14.300;2023-08-06T01:08:00;100200.13;;;16.40;81.59
17593;BME280;8915;51.760;14.300;2023-08-06T01:10:39;100187.97;;;16.39;81.62
17593;BME280;8915;51.760;14.300;2023-08-06T01:13:14;100184.94;;;16.41;81.45
17593;BME280;8915;51.760;14.300;2023-08-06T01:15:46;100187.97;;;16.39;81.47
17593;BME280;8915;51.760;14.300;2023-08-06T01:18:14;100179.97;;;16.39;81.47
17593;BME280;8915;51.760;14.300;2023-08-06T01:20:42;100186.41;;;16.38;81.66
17593;BME280;8915;51.760;14.300;2023-08-06T01:23:09;100183.75;;;16.38;81.85
17593;BME280;8915;51.760;14.300;2023-08-06T01:25:41;100180.31;;;16.38;81.80
17593;BME280;8915;51.760;14.300;2023-08-06T01:28:15;100173.09;;;16.38;81.48
17593;BME280;8915;51.760;14.300;2023-08-06T01:30:44;100172.31;;;16.38;81.99
17593;BME280;8915;51.760;14.300;2023-08-06T01:33:16;100169.66;;;16.38;82.03
17593;BME280;8915;51.760;14.300;2023-08-06T01:35:48;100165.47;;;16.37;82.07
17593;BME280;8915;51.760;14.300;2023-08-06T01:38:15;100161.66;;;16.38;81.87
17593;BME280;8915;51.760;14.300;2023-08-06T01:40:42;100155.56;;;16.37;82.22
17593;BME280;8915;51.760;14.300;2023-08-06T01:43:08;100156.69;;;16.36;82.20
17593;BME280;8915;51.760;14.300;2023-08-06T01:45:35;100156.69;;;16.36;82.23
17593;BME280;8915;51.760;14.300;2023-08-06T01:48:02;100141.09;;;16.35;82.46
17593;BME280;8915;51.760;14.300;2023-08-06T01:50:28;100149.84;;;16.35;82.60
17593;BME280;8915;51.760;14.300;2023-08-06T01:52:56;100147.94;;;16.36;82.40
17593;BME280;8915;51.760;14.300;2023-08-06T01:55:22;100147.16;;;16.35;82.25
17593;BME280;8915;51.760;14.300;2023-08-06T01:57:49;100142.22;;;16.34;82.31
17593;BME280;8915;51.760;14.300;2023-08-06T02:00:15;100141.09;;;16.35;82.53
17593;BME280;8915;51.760;14.300;2023-08-06T02:02:41;100134.22;;;16.34;82.33
17593;BME280;8915;51.760;14.300;2023-08-06T02:05:08;100132.69;;;16.33;82.00
17593;BME280;8915;51.760;14.300;2023-08-06T02:07:35;100123.94;;;16.32;82.17
17593;BME280;8915;51.760;14.300;2023-08-06T02:10:04;100123.19;;;16.32;82.08
17593;BME280;8915;51.760;14.300;2023-08-06T02:12:30;100115.56;;;16.30;81.80
17593;BME280;8915;51.760;14.300;2023-08-06T02:14:57;100121.25;;;16.29;81.91
17593;BME280;8915;51.760;14.300;2023-08-06T02:17:23;100120.88;;;16.27;82.97
17593;BME280;8915;51.760;14.300;2023-08-06T02:19:49;100115.16;;;16.28;82.75
17593;BME280;8915;51.760;14.300;2023-08-06T02:22:16;100111.38;;;16.29;82.66
17593;BME280;8915;51.760;14.300;2023-08-06T02:24:42;100112.13;;;16.30;82.50
17593;BME280;8915;51.760;14.300;2023-08-06T02:27:10;100115.16;;;16.28;82.10
17593;BME280;8915;51.760;14.300;2023-08-06T02:29:37;100110.22;;;16.27;82.53
17593;BME280;8915;51.760;14.300;2023-08-06T02:32:04;100115.16;;;16.28;82.27
17593;BME280;8915;51.760;14.300;2023-08-06T02:34:32;100114.75;;;16.26;82.66
17593;BME280;8915;51.760;14.300;2023-08-06T02:36:58;100111.00;;;16.27;82.54
17593;BME280;8915;51.760;14.300;2023-08-06T02:39:24;100104.88;;;16.27;82.28
17593;BME280;8915;51.760;14.300;2023-08-06T02:41:51;100099.56;;;16.27;82.17
17593;BME280;8915;51.760;14.300;2023-08-06T02:44:19;100085.84;;;16.25;82.16
17593;BME280;8915;51.760;14.300;2023-08-06T02:46:45;100087.75;;;16.24;82.23
17593;BME280;8915;51.760;14.300;2023-08-06T02:49:12;100081.66;;;16.24;82.38
17593;BME280;8915;51.760;14.300;2023-08-06T02:51:38;100080.91;;;16.23;82.73
17593;BME280;8915;51.760;14.300;2023-08-06T02:54:04;100088.13;;;16.23;82.41
17593;BME280;8915;51.760;14.300;2023-08-06T02:56:33;100087.38;;;16.22;82.97
17593;BME280;8915;51.760;14.300;2023-08-06T02:59:08;100077.47;;;16.23;83.05
17593;BME280;8915;51.760;14.300;2023-08-06T03:01:46;100077.47;;;16.23;82.72
17593;BME280;8915;51.760;14.300;2023-08-06T03:04:19;100077.84;;;16.21;83.13
17593;BME280;8915;51.760;14.300;2023-08-06T03:06:49;100078.59;;;16.22;83.12
17593;BME280;8915;51.760;14.300;2023-08-06T03:09:16;100071.75;;;16.21;83.32
17593;BME280;8915;51.760;14.300;2023-08-06T03:11:43;100070.59;;;16.22;83.30
17593;BME280;8915;51.760;14.300;2023-08-06T03:14:13;100063.75;;;16.21;83.60
17593;BME280;8915;51.760;14.300;2023-08-06T03:16:40;100072.13;;;16.19;83.59
17593;BME280;8915;51.760;14.300;2023-08-06T03:19:08;100069.88;;;16.21;83.21
17593;BME280;8915;51.760;14.300;2023-08-06T03:21:35;100072.53;;;16.21;83.40
17593;BME280;8915;51.760;14.300;2023-08-06T03:24:02;100063.75;;;16.21;83.86
17593;BME280;8915;51.760;14.300;2023-08-06T03:26:31;100058.06;;;16.22;83.64
17593;BME280;8915;51.760;14.300;2023-08-06T03:28:58;100049.28;;;16.22;83.64
17593;BME280;8915;51.760;14.300;2023-08-06T03:31:25;100046.63;;;16.22;83.40
17593;BME280;8915;51.760;14.300;2023-08-06T03:33:51;100053.09;;;16.21;83.19
17593;BME280;8915;51.760;14.300;2023-08-06T03:36:25;100039.00;;;16.20;83.39
17593;BME280;8915;51.760;14.300;2023-08-06T03:38:52;100042.06;;;16.19;83.15
17593;BME280;8915;51.760;14.300;2023-08-06T03:41:18;100050.06;;;16.19;83.21
17593;BME280;8915;51.760;14.300;2023-08-06T03:43:45;100043.97;;;16.18;83.35
17593;BME280;8915;51.760;14.300;2023-08-06T03:46:18;100043.19;;;16.18;83.62
17593;BME280;8915;51.760;14.300;2023-08-06T03:48:44;100036.75;;;16.19;83.42
17593;BME280;8915;51.760;14.300;2023-08-06T03:51:12;100023.00;;;16.17;83.90
17593;BME280;8915;51.760;14.300;2023-08-06T03:53:40;100020.75;;;16.19;83.82
17593;BME280;8915;51.760;14.300;2023-08-06T03:56:07;100012.00;;;16.18;83.46
17593;BME280;8915;51.760;14.300;2023-08-06T03:58:33;100010.09;;;16.19;83.71
17593;BME280;8915;51.760;14.300;2023-08-06T04:01:00;100005.88;;;16.18;83.55
17593;BME280;8915;51.760;14.300;2023-08-06T04:03:31;99992.56;;;16.18;84.02
17593;BME280;8915;51.760;14.300;2023-08-06T04:05:58;99989.91;;;16.18;83.93
17593;BME280;8915;51.760;14.300;2023-08-06T04:08:24;99987.66;;;16.16;83.92
17593;BME280;8915;51.760;14.300;2023-08-06T04:10:52;99980.41;;;16.17;83.85
17593;BME280;8915;51.760;14.300;2023-08-06T04:13:19;99980.03;;;16.15;83.89
17593;BME280;8915;51.760;14.300;2023-08-06T04:15:46;99970.09;;;16.15;84.35
17593;BME280;8915;51.760;14.300;2023-08-06T04:18:13;99964.78;;;16.15;84.19
17593;BME280;8915;51.760;14.300;2023-08-06T04:20:42;99965.56;;;16.16;84.27
17593;BME280;8915;51.760;14.300;2023-08-06T04:23:09;99959.47;;;16.15;84.27
17593;BME280;8915;51.760;14.300;2023-08-06T04:25:36;99956.78;;;16.15;83.94
17593;BME280;8915;51.760;14.300;2023-08-06T04:28:04;99969.00;;;16.16;84.29
17593;BME280;8915;51.760;14.300;2023-08-06T04:30:30;99969.00;;;16.16;84.35
17593;BME280;8915;51.760;14.300;2023-08-06T04:32:57;99979.66;;;16.16;84.43
17593;BME280;8915;51.760;14.300;2023-08-06T04:35:25;99965.94;;;16.14;84.81
17593;BME280;8915;51.760;14.300;2023-08-06T04:37:51;99962.91;;;16.16;84.67
17593;BME280;8915;51.760;14.300;2023-08-06T04:40:17;99959.84;;;16.17;84.93
17593;BME280;8915;51.760;14.300;2023-08-06T04:42:44;99955.28;;;16.18;84.92
17593;BME280;8915;51.760;14.300;2023-08-06T04:45:12;99947.28;;;16.18;84.72
17593;BME280;8915;51.760;14.300;2023-08-06T04:47:38;99949.94;;;16.18;84.77
17593;BME280;8915;51.760;14.300;2023-08-06T04:50:05;99946.16;;;16.19;84.92
17593;BME280;8915;51.760;14.300;2023-08-06T04:52:31;99938.91;;;16.19;84.73
17593;BME280;8915;51.760;14.300;2023-08-06T04:54:58;99943.88;;;16.21;84.66
17593;BME280;8915;51.760;14.300;2023-08-06T04:57:24;99935.13;;;16.20;84.70
17593;BME280;8915;51.760;14.300;2023-08-06T04:59:50;99937.41;;;16.22;84.73
17593;BME280;8915;51.760;14.300;2023-08-06T05:02:18;99925.59;;;16.23;84.41
17593;BME280;8915;51.760;14.300;2023-08-06T05:04:44;99923.72;;;16.23;84.75
17593;BME280;8915;51.760;14.300;2023-08-06T05:07:11;99925.59;;;16.23;84.55
17593;BME280;8915;51.760;14.300;2023-08-06T05:09:37;99930.94;;;16.23;84.68
17593;BME280;8915;51.760;14.300;2023-08-06T05:12:04;99927.16;;;16.24;84.51
17593;BME280;8915;51.760;14.300;2023-08-06T05:14:31;99931.69;;;16.23;84.74
17593;BME280;8915;51.760;14.300;2023-08-06T05:16:57;99927.13;;;16.20;84.91
17593;BME280;8915;51.760;14.300;2023-08-06T05:19:25;99925.97;;;16.18;84.58
17593;BME280;8915;51.760;14.300;2023-08-06T05:21:51;99914.19;;;16.19;84.64
17593;BME280;8915;51.760;14.300;2023-08-06T05:24:17;99925.59;;;16.19;84.28
17593;BME280;8915;51.760;14.300;2023-08-06T05:26:44;99914.19;;;16.19;84.40
17593;BME280;8915;51.760;14.300;2023-08-06T05:29:11;99912.66;;;16.18;84.40
17593;BME280;8915;51.760;14.300;2023-08-06T05:31:38;99904.66;;;16.18;84.15
17593;BME280;8915;51.760;14.300;2023-08-06T05:34:04;99901.63;;;16.12;84.65
17593;BME280;8915;51.760;14.300;2023-08-06T05:36:32;99905.81;;;16.13;84.46
17593;BME280;8915;51.760;14.300;2023-08-06T05:38:58;99904.28;;;16.12;84.35
17593;BME280;8915;51.760;14.300;2023-08-06T05:41:25;99902.38;;;16.13;84.40
17593;BME280;8915;51.760;14.300;2023-08-06T05:43:51;99902.78;;;16.15;84.36
17593;BME280;8915;51.760;14.300;2023-08-06T05:46:17;99897.44;;;16.15;84.71
17593;BME280;8915;51.760;14.300;2023-08-06T05:48:43;99898.59;;;16.14;84.73
17593;BME280;8915;51.760;14.300;2023-08-06T05:51:10;99896.31;;;16.16;84.46
17593;BME280;8915;51.760;14.300;2023-08-06T05:53:39;99894.00;;;16.18;84.69
17593;BME280;8915;51.760;14.300;2023-08-06T05:56:05;99884.91;;;16.19;85.05
17593;BME280;8915;51.760;14.300;2023-08-06T05:58:31;99894.03;;;16.21;84.84
17593;BME280;8915;51.760;14.300;2023-08-06T06:00:58;99892.91;;;16.22;85.28
17593;BME280;8915;51.760;14.300;2023-08-06T06:03:24;99887.94;;;16.24;84.78
17593;BME280;8915;51.760;14.300;2023-08-06T06:05:51;99888.31;;;16.26;85.01
17593;BME280;8915;51.760;14.300;2023-08-06T06:08:17;99889.06;;;16.27;84.69
17593;BME280;8915;51.760;14.300;2023-08-06T06:10:45;99884.13;;;16.25;84.70
17593;BME280;8915;51.760;14.300;2023-08-06T06:13:11;99897.84;;;16.24;84.61
17593;BME280;8915;51.760;14.300;2023-08-06T06:15:37;99896.69;;;16.25;84.60
17593;BME280;8915;51.760;14.300;2023-08-06T06:18:04;99886.03;;;16.25;84.70
17593;BME280;8915;51.760;14.300;2023-08-06T06:20:31;99895.56;;;16.26;84.99
17593;BME280;8915;51.760;14.300;2023-08-06T06:22:58;99891.75;;;16.27;84.79
17593;BME280;8915;51.760;14.300;2023-08-06T06:25:24;99892.88;;;16.29;85.31
17593;BME280;8915;51.760;14.300;2023-08-06T06:27:52;99885.66;;;16.30;85.27
17593;BME280;8915;51.760;14.300;2023-08-06T06:30:18;99891.38;;;16.32;85.36
17593;BME280;8915;51.760;14.300;2023-08-06T06:32:44;99889.06;;;16.34;85.39
17593;BME280;8915;51.760;14.300;2023-08-06T06:35:12;99881.47;;;16.36;85.41
17593;BME280;8915;51.760;14.300;2023-08-06T06:37:38;99885.66;;;16.37;85.41
17593;BME280;8915;51.760;14.300;2023-08-06T06:40:05;99885.28;;;16.38;85.05
17593;BME280;8915;51.760;14.300;2023-08-06T06:42:32;99888.72;;;16.39;85.03
17593;BME280;8915;51.760;14.300;2023-08-06T06:45:02;99880.00;;;16.42;84.99
17593;BME280;8915;51.760;14.300;2023-08-06T06:47:28;99880.75;;;16.42;85.18
17593;BME280;8915;51.760;14.300;2023-08-06T06:49:54;99886.84;;;16.43;85.11
17593;BME280;8915;51.760;14.300;2023-08-06T06:52:21;99878.09;;;16.42;84.65
17593;BME280;8915;51.760;14.300;2023-08-06T06:54:47;99881.50;;;16.43;84.99
17593;BME280;8915;51.760;14.300;2023-08-06T06:57:14;99875.03;;;16.44;84.96
17593;BME280;8915;51.760;14.300;2023-08-06T06:59:40;99879.22;;;16.41;84.54
17593;BME280;8915;51.760;14.300;2023-08-06T07:02:08;99881.50;;;16.43;84.51
17593;BME280;8915;51.760;14.300;2023-08-06T07:04:34;99884.53;;;16.41;85.05
17593;BME280;8915;51.760;14.300;2023-08-06T07:07:00;99882.66;;;16.42;85.15
17593;BME280;8915;51.760;14.300;2023-08-06T07:09:27;99883.03;;;16.44;85.21
17593;BME280;8915;51.760;14.300;2023-08-06T07:11:53;99880.34;;;16.44;85.31
17593;BME280;8915;51.760;14.300;2023-08-06T07:14:19;99879.97;;;16.45;85.07
17593;BME280;8915;51.760;14.300;2023-08-06T07:16:46;99882.28;;;16.47;85.02
17593;BME280;8915;51.760;14.300;2023-08-06T07:19:13;99876.56;;;16.48;85.42
17593;BME280;8915;51.760;14.300;2023-08-06T07:21:40;99878.84;;;16.50;85.54
17593;BME280;8915;51.760;14.300;2023-08-06T07:24:06;99878.84;;;16.53;85.46
17593;BME280;8915;51.760;14.300;2023-08-06T07:26:32;99877.31;;;16.56;85.63
17593;BME280;8915;51.760;14.300;2023-08-06T07:28:59;99874.66;;;16.56;85.19
17593;BME280;8915;51.760;14.300;2023-08-06T07:31:25;99867.81;;;16.58;85.28
17593;BME280;8915;51.760;14.300;2023-08-06T07:33:51;99876.53;;;16.62;85.24
17593;BME280;8915;51.760;14.300;2023-08-06T07:36:19;99874.28;;;16.64;85.50
17593;BME280;8915;51.760;14.300;2023-08-06T07:38:46;99875.41;;;16.67;85.57
17593;BME280;8915;51.760;14.300;2023-08-06T07:41:13;99878.44;;;16.69;85.50
17593;BME280;8915;51.760;14.300;2023-08-06T07:43:40;99869.69;;;16.72;85.36
17593;BME280;8915;51.760;14.300;2023-08-06T07:46:08;99868.16;;;16.74;85.88
17593;BME280;8915;51.760;14.300;2023-08-06T07:48:34;99865.50;;;16.78;85.69
17593;BME280;8915;51.760;14.300;2023-08-06T07:51:00;99863.59;;;16.78;85.26
17593;BME280;8915;51.760;14.300;2023-08-06T07:53:28;99862.06;;;16.81;85.24
17593;BME280;8915;51.760;14.300;2023-08-06T07:55:54;99861.66;;;16.82;85.31
17593;BME280;8915;51.760;14.300;2023-08-06T07:58:23;99856.34;;;16.86;85.32
17593;BME280;8915;51.760;14.300;2023-08-06T08:00:50;99853.69;;;16.86;85.16
17593;BME280;8915;51.760;14.300;2023-08-06T08:03:17;99849.09;;;16.90;85.53
17593;BME280;8915;51.760;14.300;2023-08-06T08:05:43;99850.63;;;16.94;85.67
17593;BME280;8915;51.760;14.300;2023-08-06T08:08:10;99848.69;;;16.95;85.56
17593;BME280;8915;51.760;14.300;2023-08-06T08:10:38;99842.59;;;16.98;84.99
17593;BME280;8915;51.760;14.300;2023-08-06T08:13:05;99833.47;;;16.95;85.10
17593;BME280;8915;51.760;14.300;2023-08-06T08:15:31;99838.00;;;16.98;84.81
17593;BME280;8915;51.760;14.300;2023-08-06T08:17:58;99838.03;;;17.02;85.58
17593;BME280;8915;51.760;14.300;2023-08-06T08:20:26;99825.81;;;17.04;85.76
17593;BME280;8915;51.760;14.300;2023-08-06T08:22:57;99833.41;;;17.06;85.50
17593;BME280;8915;51.760;14.300;2023-08-06T08:25:23;99824.66;;;17.09;85.23
17593;BME280;8915;51.760;14.300;2023-08-06T08:27:51;99822.34;;;17.11;84.93
17593;BME280;8915;51.760;14.300;2023-08-06T08:30:17;99826.16;;;17.10;84.60
17593;BME280;8915;51.760;14.300;2023-08-06T08:32:44;99813.59;;;17.10;84.75
17593;BME280;8915;51.760;14.300;2023-08-06T08:35:10;99825.78;;;17.15;84.98
17593;BME280;8915;51.760;14.300;2023-08-06T08:37:38;99805.97;;;17.12;84.38
17593;BME280;8915;51.760;14.300;2023-08-06T08:40:05;99811.28;;;17.16;84.77
17593;BME280;8915;51.760;14.300;2023-08-06T08:42:32;99810.50;;;17.19;85.03
17593;BME280;8915;51.760;14.300;2023-08-06T08:45:00;99805.94;;;17.23;84.98
17593;BME280;8915;51.760;14.300;2023-08-06T08:47:27;99801.72;;;17.25;84.96
17593;BME280;8915;51.760;14.300;2023-08-06T08:49:54;99797.13;;;17.29;85.37
17593;BME280;8915;51.760;14.300;2023-08-06T08:52:21;99788.31;;;17.36;85.53
17593;BME280;8915;51.760;14.300;2023-08-06T08:54:48;99793.28;;;17.37;85.40
17593;BME280;8915;51.760;14.300;2023-08-06T08:57:17;99792.53;;;17.40;84.82
17593;BME280;8915;51.760;14.300;2023-08-06T08:59:44;99787.91;;;17.44;85.06
17593;BME280;8915;51.760;14.300;2023-08-06T09:02:13;99783.72;;;17.47;84.81
17593;BME280;8915;51.760;14.300;2023-08-06T09:04:41;99786.78;;;17.45;84.22
17593;BME280;8915;51.760;14.300;2023-08-06T09:07:08;99780.31;;;17.46;84.17
17593;BME280;8915;51.760;14.300;2023-08-06T09:09:36;99784.47;;;17.51;84.35
17593;BME280;8915;51.760;14.300;2023-08-06T09:12:11;99773.00;;;17.54;84.63
17593;BME280;8915;51.760;14.300;2023-08-06T09:14:38;99771.84;;;17.55;84.61
17593;BME280;8915;51.760;14.300;2023-08-06T09:17:04;99762.31;;;17.57;84.52
17593;BME280;8915;51.760;14.300;2023-08-06T09:19:32;99766.50;;;17.58;84.16
17593;BME280;8915;51.760;14.300;2023-08-06T09:21:59;99768.38;;;17.58;84.05
17593;BME280;8915;51.760;14.300;2023-08-06T09:24:25;99762.31;;;17.57;83.16
17593;BME280;8915;51.760;14.300;2023-08-06T09:26:53;99758.09;;;17.60;83.84
17593;BME280;8915;51.760;14.300;2023-08-06T09:29:19;99753.50;;;17.60;84.08
17593;BME280;8915;51.760;14.300;2023-08-06T09:31:47;99756.16;;;17.64;83.77
17593;BME280;8915;51.760;14.300;2023-08-06T09:34:15;99758.03;;;17.67;84.26
17593;BME280;8915;51.760;14.300;2023-08-06T09:36:45;99756.13;;;17.67;83.77
17593;BME280;8915;51.760;14.300;2023-08-06T09:39:13;99760.72;;;17.67;83.76
17593;BME280;8915;51.760;14.300;2023-08-06T09:41:40;99761.44;;;17.71;83.72
17593;BME280;8915;51.760;14.300;2023-08-06T09:44:15;99757.19;;;17.77;84.35
17593;BME280;8915;51.760;14.300;2023-08-06T09:46:41;99751.47;;;17.78;83.49
17593;BME280;8915;51.760;14.300;2023-08-06T09:49:08;99751.81;;;17.84;83.85
17593;BME280;8915;51.760;14.300;2023-08-06T09:51:36;99753.34;;;17.85;83.92
17593;BME280;8915;51.760;14.300;2023-08-06T09:54:06;99745.28;;;17.88;83.26
17593;BME280;8915;51.760;14.300;2023-08-06T09:56:33;99749.88;;;17.88;83.01
17593;BME280;8915;51.760;14.300;2023-08-06T09:59:04;99745.28;;;17.88;83.27
17593;BME280;8915;51.760;14.300;2023-08-06T10:01:31;99746.41;;;17.91;83.21
17593;BME280;8915;51.760;14.300;2023-08-06T10:03:59;99747.19;;;17.88;83.02
17593;BME280;8915;51.760;14.300;2023-08-06T10:06:28;99753.34;;;17.85;83.11
17593;BME280;8915;51.760;14.300;2023-08-06T10:08:54;99743.00;;;17.87;83.09
17593;BME280;8915;51.760;14.300;2023-08-06T10:11:24;99750.25;;;17.90;83.41
17593;BME280;8915;51.760;14.300;2023-08-06T10:13:52;99747.59;;;17.90;83.29
17593;BME280;8915;51.760;14.300;2023-08-06T10:16:21;99744.50;;;17.91;82.85
17593;BME280;8915;51.760;14.300;2023-08-06T10:18:48;99744.50;;;17.91;83.47
17593;BME280;8915;51.760;14.300;2023-08-06T10:21:15;99743.72;;;17.94;82.74
17593;BME280;8915;51.760;14.300;2023-08-06T10:23:42;99738.75;;;17.93;82.98
17593;BME280;8915;51.760;14.300;2023-08-06T10:26:08;99733.81;;;17.95;82.97
17593;BME280;8915;51.760;14.300;2023-08-06T10:28:37;99737.22;;;17.95;83.63
17593;BME280;8915;51.760;14.300;2023-08-06T10:31:04;99738.72;;;18.00;84.12
17593;BME280;8915;51.760;14.300;2023-08-06T10:33:42;99739.84;;;18.02;83.92
17593;BME280;8915;51.760;14.300;2023-08-06T10:36:10;99731.38;;;18.07;84.45
17593;BME280;8915;51.760;14.300;2023-08-06T10:38:44;99732.50;;;18.10;83.14
17593;BME280;8915;51.760;14.300;2023-08-06T10:41:15;99726.03;;;18.11;83.02
17593;BME280;8915;51.760;14.300;2023-08-06T10:43:47;99724.47;;;18.13;83.66
17593;BME280;8915;51.760;14.300;2023-08-06T10:46:22;99721.38;;;18.15;83.65
17593;BME280;8915;51.760;14.300;2023-08-06T10:48:48;99714.88;;;18.19;83.83
17593;BME280;8915;51.760;14.300;2023-08-06T10:51:15;99715.97;;;18.25;83.84
17593;BME280;8915;51.760;14.300;2023-08-06T10:53:43;99713.28;;;18.25;83.35
17593;BME280;8915;51.760;14.300;2023-08-06T10:56:13;99700.66;;;18.29;83.10
17593;BME280;8915;51.760;14.300;2023-08-06T10:58:40;99701.38;;;18.30;82.60
17593;BME280;8915;51.760;14.300;2023-08-06T11:01:08;99702.56;;;18.29;82.33
17593;BME280;8915;51.760;14.300;2023-08-06T11:03:34;99698.31;;;18.31;82.50
17593;BME280;8915;51.760;14.300;2023-08-06T11:06:02;99685.00;;;18.28;82.21
17593;BME280;8915;51.760;14.300;2023-08-06T11:08:29;99689.56;;;18.27;81.62
17593;BME280;8915;51.760;14.300;2023-08-06T11:11:07;99677.41;;;18.23;82.09
17593;BME280;8915;51.760;14.300;2023-08-06T11:13:34;99680.47;;;18.21;81.85
17593;BME280;8915;51.760;14.300;2023-08-06T11:16:00;99682.44;;;18.17;81.69
17593;BME280;8915;51.760;14.300;2023-08-06T11:18:28;99684.34;;;18.17;81.34
17593;BME280;8915;51.760;14.300;2023-08-06T11:20:54;99679.06;;;18.13;81.51
17593;BME280;8915;51.760;14.300;2023-08-06T11:23:21;99676.81;;;18.08;82.24
17593;BME280;8915;51.760;14.300;2023-08-06T11:25:47;99681.03;;;18.06;82.63
17593;BME280;8915;51.760;14.300;2023-08-06T11:28:13;99677.25;;;18.03;81.84
17593;BME280;8915;51.760;14.300;2023-08-06T11:30:40;99675.28;;;18.07;81.92
17593;BME280;8915;51.760;14.300;2023-08-06T11:33:06;99674.19;;;18.05;81.94
17593;BME280;8915;51.760;14.300;2023-08-06T11:35:36;99675.72;;;18.02;81.84
17593;BME280;8915;51.760;14.300;2023-08-06T11:38:03;99674.19;;;18.01;81.53
17593;BME280;8915;51.760;14.300;2023-08-06T11:40:30;99671.94;;;18.00;81.61
17593;BME280;8915;51.760;14.300;2023-08-06T11:42:57;99675.00;;;17.98;81.25
17593;BME280;8915;51.760;14.300;2023-08-06T11:45:24;99673.50;;;17.97;81.34
17593;BME280;8915;51.760;14.300;2023-08-06T11:47:51;99673.91;;;17.92;80.98
17593;BME280;8915;51.760;14.300;2023-08-06T11:50:22;99669.34;;;17.89;81.06
17593;BME280;8915;51.760;14.300;2023-08-06T11:52:52;99660.97;;;17.87;81.34
17593;BME280;8915;51.760;14.300;2023-08-06T11:55:23;99680.03;;;17.89;81.56
17593;BME280;8915;51.760;14.300;2023-08-06T11:57:49;99675.84;;;17.88;80.76
17593;BME280;8915;51.760;14.300;2023-08-06T12:00:16;99677.00;;;17.87;80.78
17593;BME280;8915;51.760;14.300;2023-08-06T12:02:45;99676.28;;;17.83;80.15
17593;BME280;8915;51.760;14.300;2023-08-06T12:05:12;99667.88;;;17.81;80.13
17593;BME280;8915;51.760;14.300;2023-08-06T12:07:41;99665.22;;;17.81;80.23
17593;BME280;8915;51.760;14.300;2023-08-06T12:10:09;99673.28;;;17.74;79.72
17593;BME280;8915;51.760;14.300;2023-08-06T12:12:36;99662.22;;;17.76;80.43
17593;BME280;8915;51.760;14.300;2023-08-06T12:15:05;99664.91;;;17.76;80.63
17593;BME280;8915;51.760;14.300;2023-08-06T12:17:31;99665.25;;;17.78;81.43
17593;BME280;8915;51.760;14.300;2023-08-06T12:19:58;99661.47;;;17.75;80.95
17593;BME280;8915;51.760;14.300;2023-08-06T12:22:24;99664.50;;;17.77;81.39
17593;BME280;8915;51.760;14.300;2023-08-06T12:24:51;99662.56;;;17.78;81.78
17593;BME280;8915;51.760;14.300;2023-08-06T12:27:18;99671.72;;;17.80;82.00
17593;BME280;8915;51.760;14.300;2023-08-06T12:29:46;99662.97;;;17.80;81.91
17593;BME280;8915;51.760;14.300;2023-08-06T12:32:13;99664.09;;;17.79;81.56
17593;BME280;8915;51.760;14.300;2023-08-06T12:34:41;99660.28;;;17.80;81.66
17593;BME280;8915;51.760;14.300;2023-08-06T12:37:08;99663.31;;;17.82;81.71
17593;BME280;8915;51.760;14.300;2023-08-06T12:39:35;99655.69;;;17.80;81.28
17593;BME280;8915;51.760;14.300;2023-08-06T12:42:03;99659.88;;;17.81;81.74
17593;BME280;8915;51.760;14.300;2023-08-06T12:44:31;99651.09;;;17.84;82.23
17593;BME280;8915;51.760;14.300;2023-08-06T12:46:58;99657.16;;;17.88;82.50
17593;BME280;8915;51.760;14.300;2023-08-06T12:49:25;99651.81;;;17.88;82.64
17593;BME280;8915;51.760;14.300;2023-08-06T12:51:52;99655.59;;;17.91;82.51
17593;BME280;8915;51.760;14.300;2023-08-06T12:54:20;99652.53;;;17.92;82.17
17593;BME280;8915;51.760;14.300;2023-08-06T12:56:47;99651.38;;;17.93;82.46
17593;BME280;8915;51.760;14.300;2023-08-06T12:59:14;99653.25;;;17.96;82.83